Time;durP1;ratioP1;P1;durP2;ratioP2;P2;SDS_P1;SDS_P2;PMS_P1;PMS_P2;Temp;Humidity;BMP_temperature;BMP_pressure;BME280_temperature;BME280_humidity;BME280_pressure;Samples;Min_cycle;Max_cycle;Signal;HPM_P1;HPM_P2
2024/03/29 00:02:13;;;;;;;3.25;1.00;;;7.80;99.90;;;;;;5052550;28;20420;-72
2024/03/29 00:04:39;;;;;;;3.28;1.13;;;7.80;99.90;;;;;;5052527;28;20045;-72
2024/03/29 00:07:04;;;;;;;6.00;0.73;;;7.80;99.90;;;;;;5051556;28;20044;-72
2024/03/29 00:09:30;;;;;;;5.43;1.15;;;7.80;99.90;;;;;;5052298;28;20040;-73
2024/03/29 00:11:55;;;;;;;4.70;1.05;;;7.80;99.90;;;;;;5052612;28;20116;-72
2024/03/29 00:14:21;;;;;;;1.58;0.95;;;7.70;99.90;;;;;;5050723;28;20132;-73
2024/03/29 00:16:47;;;;;;;5.28;0.70;;;7.70;99.90;;;;;;5051129;28;20044;-72
2024/03/29 00:19:12;;;;;;;3.05;0.60;;;7.80;99.90;;;;;;5050924;28;20095;-72
2024/03/29 00:21:38;;;;;;;3.92;0.85;;;7.70;99.90;;;;;;5051131;28;20485;-72
2024/03/29 00:24:03;;;;;;;5.70;0.73;;;7.70;99.90;;;;;;5051902;28;20052;-72
2024/03/29 00:26:29;;;;;;;3.80;0.70;;;7.70;99.90;;;;;;5051070;28;20041;-72
2024/03/29 00:28:55;;;;;;;2.05;0.70;;;7.70;99.90;;;;;;5051326;28;20724;-72
2024/03/29 00:31:20;;;;;;;5.15;0.80;;;7.70;99.90;;;;;;5050706;28;20041;-72
2024/03/29 00:33:46;;;;;;;2.63;0.85;;;7.70;99.90;;;;;;5050707;28;20409;-72
2024/03/29 00:36:12;;;;;;;4.35;0.93;;;7.60;99.90;;;;;;5051152;28;20037;-72
2024/03/29 00:38:37;;;;;;;6.25;0.90;;;7.60;99.90;;;;;;5050747;28;20098;-72
2024/03/29 00:41:03;;;;;;;4.10;0.60;;;7.60;99.90;;;;;;5051648;28;20073;-72
2024/03/29 00:43:29;;;;;;;5.22;1.13;;;7.60;99.90;;;;;;5050261;28;20127;-72
2024/03/29 00:45:54;;;;;;;5.43;1.45;;;7.70;99.90;;;;;;5052174;28;20043;-72
2024/03/29 00:48:20;;;;;;;5.45;1.25;;;7.60;99.90;;;;;;5051027;28;20124;-72
2024/03/29 00:50:46;;;;;;;4.72;0.73;;;7.60;99.90;;;;;;5050365;28;20048;-72
2024/03/29 00:53:12;;;;;;;3.60;1.00;;;7.60;99.90;;;;;;5051354;28;20033;-72
2024/03/29 00:55:37;;;;;;;2.53;0.90;;;7.70;99.90;;;;;;5052072;28;20041;-72
2024/03/29 00:58:03;;;;;;;3.75;1.00;;;7.70;99.90;;;;;;5052141;28;20565;-72
2024/03/29 01:00:29;;;;;;;5.18;0.65;;;7.70;99.90;;;;;;5050411;28;20440;-72
2024/03/29 01:02:54;;;;;;;3.97;0.80;;;7.70;99.90;;;;;;5049977;28;20037;-73
2024/03/29 01:05:20;;;;;;;5.07;1.23;;;7.60;99.90;;;;;;5050341;28;20119;-72
2024/03/29 01:07:46;;;;;;;3.63;0.85;;;7.60;99.90;;;;;;5050289;28;20132;-72
2024/03/29 01:10:11;;;;;;;5.88;0.98;;;7.60;99.90;;;;;;5050232;28;20215;-72
2024/03/29 01:12:39;;;;;;;4.28;0.70;;;7.60;99.90;;;;;;5049965;28;20462;-72
2024/03/29 01:15:06;;;;;;;4.53;1.23;;;7.60;99.90;;;;;;5050239;28;20066;-73
2024/03/29 01:17:31;;;;;;;1.35;0.73;;;7.60;99.90;;;;;;5050208;28;20045;-73
2024/03/29 01:19:57;;;;;;;2.00;1.25;;;7.50;99.90;;;;;;5050162;28;20048;-73
2024/03/29 01:22:23;;;;;;;3.30;0.80;;;7.60;99.90;;;;;;5049512;28;20512;-72
2024/03/29 01:24:48;;;;;;;4.55;1.10;;;7.60;99.90;;;;;;5049670;28;20079;-73
2024/03/29 01:27:14;;;;;;;3.92;0.70;;;7.50;99.90;;;;;;5050450;28;20045;-73
2024/03/29 01:29:40;;;;;;;2.70;0.60;;;7.50;99.90;;;;;;5049990;28;20521;-73
2024/03/29 01:32:06;;;;;;;4.32;0.82;;;7.50;99.90;;;;;;5050152;28;20066;-73
2024/03/29 01:34:31;;;;;;;3.42;0.60;;;7.40;99.90;;;;;;5049607;28;20048;-72
2024/03/29 01:36:57;;;;;;;3.42;0.70;;;7.50;99.90;;;;;;5049945;28;20049;-73
2024/03/29 01:39:28;;;;;;;5.72;1.48;;;7.60;99.90;;;;;;5050107;28;20089;-73
2024/03/29 01:41:54;;;;;;;2.70;0.90;;;7.50;99.90;;;;;;5049822;28;20045;-72
2024/03/29 01:44:20;;;;;;;2.38;0.80;;;7.50;99.90;;;;;;5050817;28;20040;-72
2024/03/29 01:46:47;;;;;;;6.85;1.67;;;7.50;99.90;;;;;;5050007;28;20036;-72
2024/03/29 01:49:13;;;;;;;5.07;1.02;;;7.60;99.90;;;;;;5051136;28;20080;-72
2024/03/29 01:51:39;;;;;;;8.23;0.88;;;7.60;99.90;;;;;;5049767;28;20048;-73
2024/03/29 01:54:08;;;;;;;6.57;0.80;;;7.60;99.90;;;;;;5049378;28;20044;-72
2024/03/29 01:56:35;;;;;;;5.60;1.30;;;7.60;99.90;;;;;;5049867;28;20045;-72
2024/03/29 01:59:03;;;;;;;7.80;1.23;;;7.70;99.90;;;;;;5049967;28;20037;-72
2024/03/29 02:01:30;;;;;;;1.63;0.65;;;7.60;99.90;;;;;;5050709;28;20037;-72
2024/03/29 02:03:56;;;;;;;7.18;1.40;;;7.70;99.90;;;;;;5049598;28;20116;-73
2024/03/29 02:06:22;;;;;;;3.20;1.25;;;7.80;99.90;;;;;;5050026;28;20037;-73
2024/03/29 02:08:53;;;;;;;4.03;0.80;;;7.70;99.90;;;;;;5051047;28;20488;-72
2024/03/29 02:11:19;;;;;;;6.82;1.67;;;7.70;99.90;;;;;;5049530;28;20040;-73
2024/03/29 02:13:46;;;;;;;3.50;0.88;;;7.80;99.90;;;;;;5049343;28;20049;-72
2024/03/29 02:16:11;;;;;;;2.33;0.85;;;7.80;99.90;;;;;;5049717;28;20047;-72
2024/03/29 02:18:37;;;;;;;6.65;1.15;;;7.80;99.90;;;;;;5050831;28;20413;-73
2024/03/29 02:21:03;;;;;;;5.28;0.95;;;7.80;99.90;;;;;;5049476;28;20029;-73
2024/03/29 02:23:32;;;;;;;2.30;0.60;;;7.80;99.90;;;;;;5049380;28;20053;-73
2024/03/29 02:25:57;;;;;;;3.67;0.70;;;7.70;99.90;;;;;;5049706;28;20048;-73
2024/03/29 02:28:24;;;;;;;5.13;0.90;;;7.70;99.90;;;;;;5049633;28;20413;-72
2024/03/29 02:30:50;;;;;;;2.45;1.15;;;7.70;99.90;;;;;;5049330;28;20045;-73
2024/03/29 02:33:16;;;;;;;4.07;0.77;;;7.70;99.90;;;;;;5049067;28;20531;-72
2024/03/29 02:35:41;;;;;;;4.10;0.93;;;7.70;99.90;;;;;;5049554;28;20040;-73
2024/03/29 02:38:07;;;;;;;6.47;1.25;;;7.70;99.90;;;;;;5053237;28;20120;-73
2024/03/29 02:40:32;;;;;;;1.75;0.70;;;7.70;99.90;;;;;;5054053;28;20199;-72
2024/03/29 02:42:58;;;;;;;4.82;1.05;;;7.70;99.90;;;;;;5054027;28;20033;-72
2024/03/29 02:45:24;;;;;;;2.35;0.82;;;7.70;99.90;;;;;;5053358;28;20438;-72
2024/03/29 02:47:49;;;;;;;4.07;1.45;;;7.70;99.90;;;;;;5052903;28;20068;-72
2024/03/29 02:50:16;;;;;;;2.28;0.70;;;7.70;99.90;;;;;;5053901;28;20048;-73
2024/03/29 02:52:42;;;;;;;5.55;0.85;;;7.70;99.90;;;;;;5052237;28;20041;-73
2024/03/29 02:55:10;;;;;;;3.10;0.93;;;7.70;99.90;;;;;;5036183;28;20133;-73
2024/03/29 02:57:36;;;;;;;4.60;0.70;;;7.70;99.90;;;;;;5054074;28;20423;-72
2024/03/29 03:00:03;;;;;;;7.65;1.13;;;7.70;99.90;;;;;;5052465;28;20120;-72
2024/03/29 03:02:28;;;;;;;3.13;0.80;;;7.70;99.90;;;;;;5052138;28;20120;-72
2024/03/29 03:04:54;;;;;;;3.35;0.80;;;7.60;99.90;;;;;;5052754;28;20073;-72
2024/03/29 03:12:48;;;;;;;2.03;0.60;;;7.70;99.90;;;;;;5052120;28;20040;-73
2024/03/29 03:15:14;;;;;;;5.63;1.08;;;7.60;99.90;;;;;;5052524;28;20037;-72
2024/03/29 03:17:40;;;;;;;7.72;1.13;;;7.70;99.90;;;;;;5052719;28;20049;-73
2024/03/29 03:20:06;;;;;;;5.70;1.70;;;7.80;99.90;;;;;;5052485;28;20484;-73
2024/03/29 03:22:32;;;;;;;4.03;1.10;;;7.80;99.90;;;;;;5051985;28;20033;-73
2024/03/29 03:24:58;;;;;;;2.08;0.70;;;7.70;99.90;;;;;;5052608;28;20068;-73
2024/03/29 03:27:24;;;;;;;3.97;1.05;;;7.70;99.90;;;;;;5035647;28;20072;-72
2024/03/29 03:29:49;;;;;;;4.03;0.80;;;7.70;99.90;;;;;;5053392;28;20045;-73
2024/03/29 03:32:15;;;;;;;3.85;0.80;;;7.70;99.90;;;;;;5053211;28;20048;-72
2024/03/29 03:34:41;;;;;;;3.45;0.73;;;7.70;99.90;;;;;;5052059;28;20048;-73
2024/03/29 03:37:06;;;;;;;3.72;1.05;;;7.80;99.90;;;;;;5053314;28;20037;-73
2024/03/29 03:39:32;;;;;;;6.55;0.90;;;7.70;99.90;;;;;;5051913;28;20116;-72
2024/03/29 03:41:58;;;;;;;4.40;0.88;;;7.70;99.90;;;;;;5051636;28;20045;-73
2024/03/29 03:44:24;;;;;;;2.65;0.80;;;7.70;99.90;;;;;;5051596;28;20118;-73
2024/03/29 03:46:51;;;;;;;3.63;0.63;;;7.70;99.90;;;;;;5051781;28;20401;-72
2024/03/29 03:49:16;;;;;;;4.45;0.75;;;7.70;99.90;;;;;;5051713;28;20075;-72
2024/03/29 03:51:42;;;;;;;4.10;0.80;;;7.70;99.90;;;;;;5053238;28;20072;-72
2024/03/29 03:54:08;;;;;;;8.35;1.45;;;7.70;99.90;;;;;;5051403;28;20127;-73
2024/03/29 03:56:33;;;;;;;3.05;0.70;;;7.70;99.90;;;;;;5035047;28;20052;-73
2024/03/29 03:58:59;;;;;;;3.00;0.82;;;7.70;99.90;;;;;;5053090;28;20175;-72
2024/03/29 04:01:24;;;;;;;10.93;1.25;;;7.70;99.90;;;;;;5051273;28;20044;-73
2024/03/29 04:03:50;;;;;;;4.18;0.73;;;7.80;99.90;;;;;;5051213;28;20420;-73
2024/03/29 04:06:16;;;;;;;4.60;0.85;;;7.70;99.90;;;;;;5034996;28;20044;-73
2024/03/29 04:08:44;;;;;;;4.50;0.75;;;7.70;99.90;;;;;;5051560;28;20099;-73
2024/03/29 04:11:10;;;;;;;6.55;0.90;;;7.70;99.90;;;;;;5052370;28;20037;-73
2024/03/29 04:13:38;;;;;;;4.30;1.23;;;7.70;99.90;;;;;;5050889;28;20037;-73
2024/03/29 04:16:07;;;;;;;2.58;0.68;;;7.80;99.90;;;;;;5051335;28;20144;-72
2024/03/29 04:18:33;;;;;;;4.05;1.38;;;7.70;99.90;;;;;;5052561;28;20496;-73
2024/03/29 04:21:00;;;;;;;3.42;0.90;;;7.70;99.90;;;;;;5052320;28;20068;-72
2024/03/29 04:23:26;;;;;;;4.57;0.70;;;7.80;99.90;;;;;;5050834;28;20045;-73
2024/03/29 04:25:56;;;;;;;3.83;0.65;;;7.70;99.90;;;;;;5051345;28;20040;-73
2024/03/29 04:28:22;;;;;;;4.38;1.15;;;7.80;99.90;;;;;;5052338;28;20508;-73
2024/03/29 04:30:59;;;;;;;4.45;1.17;;;7.70;99.90;;;;;;5051045;28;20076;-73
2024/03/29 04:33:25;;;;;;;3.63;0.93;;;7.80;99.90;;;;;;5050762;28;20094;-73
2024/03/29 04:35:57;;;;;;;5.15;0.98;;;7.80;99.90;;;;;;5051032;28;20049;-73
2024/03/29 04:38:24;;;;;;;5.40;0.90;;;7.80;99.90;;;;;;5051146;28;20045;-72
2024/03/29 04:40:51;;;;;;;2.67;0.80;;;7.80;99.90;;;;;;5050503;28;20075;-73
2024/03/29 04:43:17;;;;;;;4.57;1.00;;;7.80;99.90;;;;;;5051839;28;20045;-72
2024/03/29 04:45:46;;;;;;;8.30;0.98;;;7.90;99.90;;;;;;5052143;28;20086;-73
2024/03/29 04:48:12;;;;;;;5.47;0.80;;;7.90;99.90;;;;;;5052216;28;20033;-73
2024/03/29 04:50:38;;;;;;;2.35;0.85;;;7.90;99.90;;;;;;5050442;28;20041;-72
2024/03/29 04:53:04;;;;;;;2.47;1.20;;;7.90;99.90;;;;;;5033513;28;20036;-73
2024/03/29 04:55:30;;;;;;;5.68;0.90;;;8.00;99.90;;;;;;5052120;28;20108;-72
2024/03/29 04:57:56;;;;;;;4.30;0.77;;;8.00;99.90;;;;;;5051919;28;20047;-73
2024/03/29 05:00:22;;;;;;;2.70;0.73;;;7.90;99.90;;;;;;5049647;28;20404;-73
2024/03/29 05:02:47;;;;;;;4.85;0.77;;;8.00;99.90;;;;;;5050021;28;20106;-73
2024/03/29 05:05:13;;;;;;;1.58;0.63;;;8.00;99.90;;;;;;5033790;28;20033;-73
2024/03/29 05:07:39;;;;;;;4.18;1.10;;;8.00;99.90;;;;;;5050810;28;20041;-73
2024/03/29 05:10:09;;;;;;;9.02;2.22;;;8.10;99.90;;;;;;5050314;28;20086;-73
2024/03/29 05:12:35;;;;;;;3.08;0.65;;;8.00;99.90;;;;;;5051269;28;20087;-72
2024/03/29 05:15:01;;;;;;;3.35;0.63;;;8.00;99.90;;;;;;5051478;28;20505;-73
2024/03/29 05:17:27;;;;;;;1.95;0.75;;;8.00;99.90;;;;;;5051482;28;20076;-73
2024/03/29 05:19:56;;;;;;;1.90;0.80;;;8.10;99.90;;;;;;5049846;28;20451;-73
2024/03/29 05:22:22;;;;;;;4.75;0.90;;;8.10;99.90;;;;;;5049670;28;20040;-73
2024/03/29 05:24:47;;;;;;;3.78;0.80;;;8.20;99.90;;;;;;5050009;28;20439;-73
2024/03/29 05:27:13;;;;;;;3.20;0.65;;;8.20;99.90;;;;;;5051277;28;20039;-73
2024/03/29 05:29:39;;;;;;;1.42;0.70;;;8.20;99.90;;;;;;5050086;28;20033;-73
2024/03/29 05:32:07;;;;;;;1.90;0.55;;;8.30;99.90;;;;;;5050189;28;20519;-73
2024/03/29 05:34:32;;;;;;;7.47;0.82;;;8.30;99.90;;;;;;5050813;28;20048;-73
2024/03/29 05:36:58;;;;;;;3.65;0.75;;;8.30;99.90;;;;;;5033467;28;20036;-73
2024/03/29 05:39:24;;;;;;;2.05;0.70;;;8.20;99.90;;;;;;5051066;28;20124;-73
2024/03/29 05:41:49;;;;;;;4.18;0.88;;;8.20;99.90;;;;;;5073758;22;20165;-73
2024/03/29 05:44:15;;;;;;;3.92;0.82;;;8.30;99.90;;;;;;5049620;28;20585;-73
2024/03/29 05:46:41;;;;;;;2.88;0.75;;;8.30;99.90;;;;;;5051234;28;20382;-72
2024/03/29 05:49:07;;;;;;;1.45;0.63;;;8.30;99.90;;;;;;5049787;28;20043;-72
2024/03/29 05:51:35;;;;;;;3.13;0.80;;;8.30;99.90;;;;;;5050016;28;20412;-72
2024/03/29 05:54:03;;;;;;;2.30;0.90;;;8.20;99.90;;;;;;5049542;28;20037;-73
2024/03/29 05:56:29;;;;;;;4.95;0.77;;;8.30;99.90;;;;;;5049972;28;20041;-72
2024/03/29 05:58:55;;;;;;;1.10;0.50;;;8.40;99.90;;;;;;5049858;28;20119;-72
2024/03/29 06:01:21;;;;;;;3.78;0.75;;;8.40;99.90;;;;;;5049396;28;20390;-72
2024/03/29 06:03:47;;;;;;;7.35;0.73;;;8.40;99.90;;;;;;5049469;28;20099;-72
2024/03/29 06:06:17;;;;;;;2.20;0.70;;;8.40;99.90;;;;;;5050167;28;20489;-72
2024/03/29 06:08:45;;;;;;;7.43;1.20;;;8.40;99.90;;;;;;5050142;28;20392;-74
2024/03/29 06:11:11;;;;;;;2.10;0.73;;;8.40;99.90;;;;;;5052200;28;20458;-74
2024/03/29 06:19:08;;;;;;;3.05;0.75;;;8.50;99.90;;;;;;5053489;28;20048;-74
2024/03/29 06:21:38;;;;;;;3.42;0.98;;;8.60;99.90;;;;;;5053463;28;20037;-74
2024/03/29 06:24:12;;;;;;;9.38;1.65;;;8.60;99.90;;;;;;5052907;28;20041;-74
2024/03/29 06:26:38;;;;;;;2.83;0.77;;;8.70;99.90;;;;;;5053530;28;20045;-74
2024/03/29 06:29:04;;;;;;;2.58;0.82;;;8.70;99.90;;;;;;5054967;28;20032;-74
2024/03/29 06:31:30;;;;;;;5.20;0.70;;;8.70;99.90;;;;;;5053226;28;20052;-74
2024/03/29 06:33:59;;;;;;;2.00;0.73;;;8.80;99.90;;;;;;5052943;28;20123;-74
2024/03/29 06:36:25;;;;;;;3.97;0.95;;;8.80;99.90;;;;;;5053357;28;20547;-74
2024/03/29 06:38:51;;;;;;;3.55;0.70;;;8.80;99.90;;;;;;5053273;28;20049;-74
2024/03/29 06:41:17;;;;;;;1.80;1.00;;;8.80;99.90;;;;;;5052789;28;20041;-74
2024/03/29 06:43:46;;;;;;;2.30;0.60;;;8.80;99.90;;;;;;5036283;28;20041;-74
2024/03/29 06:46:12;;;;;;;2.63;0.65;;;8.90;99.90;;;;;;5053042;28;20041;-74
2024/03/29 06:48:38;;;;;;;1.65;0.55;;;8.90;99.90;;;;;;5054209;28;20764;-74
2024/03/29 06:51:04;;;;;;;0.68;0.40;;;8.90;99.90;;;;;;5052670;28;20041;-74
2024/03/29 06:53:30;;;;;;;1.05;0.50;;;9.00;99.90;;;;;;5053764;28;20047;-74
2024/03/29 06:55:56;;;;;;;6.05;1.70;;;9.10;99.90;;;;;;5052891;28;20045;-75
2024/03/29 06:58:22;;;;;;;2.58;0.60;;;9.00;99.90;;;;;;5052799;28;20040;-74
2024/03/29 07:00:49;;;;;;;0.93;0.40;;;9.10;99.90;;;;;;5052411;28;20041;-74
2024/03/29 07:03:16;;;;;;;1.88;0.40;;;9.10;99.90;;;;;;5052504;28;20076;-74
2024/03/29 07:05:42;;;;;;;2.33;0.57;;;9.10;99.90;;;;;;5052748;28;20033;-74
2024/03/29 07:08:08;;;;;;;1.95;0.98;;;9.10;99.90;;;;;;5053575;28;20033;-74
2024/03/29 07:10:33;;;;;;;2.55;0.47;;;9.20;99.90;;;;;;5052613;28;20041;-74
2024/03/29 07:12:59;;;;;;;6.50;1.08;;;9.20;99.90;;;;;;5052204;28;20037;-74
2024/03/29 07:15:25;;;;;;;2.65;0.38;;;9.20;99.90;;;;;;5053835;28;20099;-74
2024/03/29 07:17:52;;;;;;;4.07;0.40;;;9.20;99.90;;;;;;5053795;28;20063;-74
2024/03/29 07:20:18;;;;;;;3.85;0.70;;;9.30;99.90;;;;;;5051963;28;20045;-74
2024/03/29 07:22:45;;;;;;;2.00;0.47;;;9.30;99.90;;;;;;5051175;28;20403;-74
2024/03/29 07:25:11;;;;;;;1.67;0.55;;;9.30;99.90;;;;;;5053757;28;20115;-74
2024/03/29 07:27:36;;;;;;;3.33;0.82;;;9.30;99.90;;;;;;5052510;28;20124;-73
2024/03/29 07:30:08;;;;;;;2.50;0.63;;;9.30;99.90;;;;;;5053243;28;20037;-74
2024/03/29 07:32:33;;;;;;;2.60;0.50;;;9.40;99.90;;;;;;5051916;28;20093;-73
2024/03/29 07:35:00;;;;;;;2.85;0.60;;;9.50;99.90;;;;;;5052166;28;20033;-74
2024/03/29 07:37:25;;;;;;;3.75;0.68;;;9.60;99.90;;;;;;5053304;28;20048;-74
2024/03/29 07:39:51;;;;;;;3.58;0.80;;;9.80;99.90;;;;;;5051907;28;20033;-73
2024/03/29 07:42:17;;;;;;;2.20;0.60;;;10.00;99.90;;;;;;5052980;28;20041;-74
2024/03/29 07:44:43;;;;;;;2.70;0.50;;;10.20;99.90;;;;;;5053528;28;20033;-75
2024/03/29 07:47:09;;;;;;;2.00;0.90;;;10.30;99.90;;;;;;5053176;28;20110;-75
2024/03/29 07:49:35;;;;;;;2.75;0.47;;;10.30;99.90;;;;;;5051417;28;20041;-74
2024/03/29 07:52:05;;;;;;;3.50;0.50;;;10.30;99.90;;;;;;5052898;28;20051;-75
2024/03/29 07:54:34;;;;;;;0.88;0.50;;;10.30;99.90;;;;;;5051215;28;20044;-74
2024/03/29 07:56:59;;;;;;;1.42;0.70;;;10.20;99.90;;;;;;5051980;28;20071;-74
2024/03/29 07:59:25;;;;;;;0.98;0.50;;;10.30;99.90;;;;;;5051793;28;20040;-74
2024/03/29 08:01:52;;;;;;;3.67;0.50;;;10.50;99.90;;;;;;5061057;28;20032;-74
2024/03/29 08:04:18;;;;;;;2.92;0.70;;;10.50;99.90;;;;;;5053901;28;20041;-74
2024/03/29 08:06:43;;;;;;;2.25;0.43;;;10.50;99.90;;;;;;5051715;28;20033;-74
2024/03/29 08:09:13;;;;;;;0.95;0.43;;;10.50;99.90;;;;;;5059206;28;20039;-74
2024/03/29 08:11:40;;;;;;;3.47;0.93;;;10.50;99.90;;;;;;5067789;28;20048;-75
2024/03/29 08:14:06;;;;;;;1.73;0.50;;;10.50;99.90;;;;;;5071361;28;20044;-75
2024/03/29 08:16:32;;;;;;;1.27;0.57;;;10.40;99.90;;;;;;5072529;28;20119;-75
2024/03/29 08:18:58;;;;;;;0.60;0.30;;;10.40;99.90;;;;;;5071538;28;20040;-75
2024/03/29 08:21:27;;;;;;;3.78;0.70;;;10.30;99.90;;;;;;5070842;28;20036;-75
2024/03/29 08:23:54;;;;;;;0.70;0.38;;;10.20;99.90;;;;;;5070706;28;20040;-75
2024/03/29 08:26:21;;;;;;;4.22;0.70;;;10.20;99.90;;;;;;5071466;28;20072;-74
2024/03/29 08:28:46;;;;;;;1.95;1.00;;;10.10;99.90;;;;;;5072247;28;20033;-75
2024/03/29 08:31:12;;;;;;;2.25;0.50;;;10.10;99.90;;;;;;5071774;28;20048;-75
2024/03/29 08:33:38;;;;;;;1.88;0.50;;;10.10;99.90;;;;;;5053783;28;20048;-74
2024/03/29 08:36:08;;;;;;;3.83;0.52;;;10.10;99.90;;;;;;5065504;28;20041;-75
2024/03/29 08:38:34;;;;;;;2.80;0.52;;;10.10;99.90;;;;;;5032534;28;20439;-74
2024/03/29 08:41:00;;;;;;;1.30;0.50;;;10.20;99.90;;;;;;5049577;28;20037;-74
2024/03/29 08:43:26;;;;;;;2.92;0.70;;;10.20;99.90;;;;;;5053708;28;20066;-75
2024/03/29 08:45:52;;;;;;;2.20;0.52;;;10.30;99.90;;;;;;5066804;28;20045;-75
2024/03/29 08:48:18;;;;;;;0.60;0.52;;;10.30;99.90;;;;;;5015133;28;20040;-75
2024/03/29 08:50:44;;;;;;;2.72;0.57;;;10.40;99.90;;;;;;5029816;28;20041;-75
2024/03/29 08:53:10;;;;;;;2.30;0.60;;;10.40;99.90;;;;;;5047394;28;20501;-75
2024/03/29 08:55:40;;;;;;;0.95;0.40;;;10.40;99.90;;;;;;5050555;28;20131;-75
2024/03/29 08:58:06;;;;;;;2.40;0.65;;;10.50;99.90;;;;;;5050133;28;20675;-75
2024/03/29 09:00:31;;;;;;;2.20;0.50;;;10.60;99.90;;;;;;5050017;28;20046;-73
2024/03/29 09:02:58;;;;;;;4.05;1.25;;;10.70;99.90;;;;;;5050292;28;20053;-73
2024/03/29 09:05:26;;;;;;;2.60;0.32;;;10.80;99.90;;;;;;5044259;28;20048;-73
2024/03/29 09:07:52;;;;;;;0.85;0.40;;;11.00;99.90;;;;;;5022815;28;20087;-73
2024/03/29 09:10:18;;;;;;;1.42;0.50;;;10.90;99.90;;;;;;5038075;28;20041;-73
2024/03/29 09:12:43;;;;;;;2.47;0.40;;;10.90;99.90;;;;;;5030945;28;20413;-72
2024/03/29 09:15:13;;;;;;;2.97;0.50;;;11.00;99.90;;;;;;5031634;28;20048;-73
2024/03/29 09:17:40;;;;;;;2.08;0.70;;;11.10;99.90;;;;;;5030601;28;20033;-73
2024/03/29 09:20:06;;;;;;;1.45;0.82;;;11.10;99.90;;;;;;5031190;28;20049;-72
2024/03/29 09:22:32;;;;;;;2.45;0.73;;;11.10;99.90;;;;;;5013368;28;20428;-76
2024/03/29 09:24:57;;;;;;;3.85;0.50;;;11.10;99.90;;;;;;5030345;28;20486;-75
2024/03/29 09:27:23;;;;;;;1.60;0.50;;;11.20;99.90;;;;;;5031281;28;20033;-75
2024/03/29 09:29:49;;;;;;;0.95;0.30;;;11.10;99.90;;;;;;5036456;28;20074;-75
2024/03/29 09:32:17;;;;;;;3.05;0.75;;;11.10;99.90;;;;;;5060310;28;20037;-76
2024/03/29 09:34:44;;;;;;;2.00;0.65;;;11.20;99.90;;;;;;5057890;28;20544;-75
2024/03/29 09:37:10;;;;;;;1.42;0.50;;;11.10;99.90;;;;;;5049875;28;20654;-76
2024/03/29 09:39:35;;;;;;;1.25;0.47;;;11.00;99.90;;;;;;5050308;28;20044;-73
2024/03/29 09:42:03;;;;;;;0.68;0.40;;;11.00;99.90;;;;;;5060462;28;20048;-73
2024/03/29 09:44:35;;;;;;;1.73;0.50;;;11.00;99.90;;;;;;5062848;28;20052;-73
2024/03/29 09:47:05;;;;;;;1.00;0.70;;;11.00;99.90;;;;;;5074278;28;20041;-73
2024/03/29 09:49:32;;;;;;;1.20;0.50;;;11.10;99.90;;;;;;5074102;28;20056;-74
2024/03/29 09:51:59;;;;;;;2.10;1.02;;;11.20;99.90;;;;;;5074322;28;20055;-72
2024/03/29 09:54:28;;;;;;;1.02;0.60;;;11.30;99.90;;;;;;5073602;28;20041;-76
2024/03/29 09:56:57;;;;;;;1.25;0.47;;;11.20;99.90;;;;;;5074306;28;20082;-76
2024/03/29 09:59:23;;;;;;;2.88;0.80;;;11.20;99.90;;;;;;5073937;28;20044;-76
2024/03/29 10:01:51;;;;;;;1.02;0.88;;;11.20;99.90;;;;;;5074986;28;20040;-76
2024/03/29 10:04:20;;;;;;;1.05;0.68;;;11.30;99.90;;;;;;5073348;28;20079;-76
2024/03/29 10:06:49;;;;;;;2.45;0.90;;;11.10;99.90;;;;;;5073746;28;20033;-75
2024/03/29 10:09:19;;;;;;;4.30;0.95;;;11.10;99.90;;;;;;5056721;28;20036;-76
2024/03/29 10:11:45;;;;;;;1.75;0.63;;;11.30;99.90;;;;;;5073854;28;20048;-76
2024/03/29 10:14:11;;;;;;;1.35;1.25;;;11.40;99.90;;;;;;5073128;28;20097;-76
2024/03/29 10:16:36;;;;;;;2.95;0.80;;;11.50;99.90;;;;;;5073836;28;20040;-77
2024/03/29 10:19:05;;;;;;;1.15;0.70;;;11.60;99.90;;;;;;5073448;28;20044;-76
2024/03/29 10:21:32;;;;;;;2.20;0.80;;;11.80;99.90;;;;;;5073214;28;20045;-76
2024/03/29 10:23:57;;;;;;;3.70;0.85;;;11.90;99.90;;;;;;5074501;28;20047;-76
2024/03/29 10:26:25;;;;;;;2.50;0.70;;;11.90;99.90;;;;;;5056592;28;20035;-76
2024/03/29 10:28:51;;;;;;;4.18;1.00;;;11.90;99.90;;;;;;5073342;28;20032;-76
2024/03/29 10:31:17;;;;;;;1.60;1.50;;;12.00;99.90;;;;;;5073095;28;20036;-76
2024/03/29 10:33:44;;;;;;;3.17;1.00;;;12.10;99.90;;;;;;5072834;28;20550;-76
2024/03/29 10:36:12;;;;;;;2.60;0.80;;;12.20;99.90;;;;;;5073427;28;20037;-78
2024/03/29 10:38:38;;;;;;;0.90;0.60;;;12.30;99.90;;;;;;5073553;28;20418;-76
2024/03/29 10:41:06;;;;;;;2.33;0.70;;;12.40;99.90;;;;;;5073871;28;20571;-76
2024/03/29 10:43:33;;;;;;;2.15;0.70;;;12.40;99.90;;;;;;5072584;28;20115;-76
2024/03/29 10:46:00;;;;;;;3.45;0.90;;;12.50;99.90;;;;;;5073030;28;20033;-76
2024/03/29 10:48:28;;;;;;;2.70;0.77;;;12.50;99.90;;;;;;5073242;28;20412;-76
2024/03/29 10:50:58;;;;;;;1.65;0.82;;;12.60;99.90;;;;;;5072912;28;20467;-74
2024/03/29 10:53:27;;;;;;;1.67;0.90;;;12.50;99.90;;;;;;5072969;28;20043;-76
2024/03/29 10:56:07;;;;;;;3.65;1.40;;;12.80;99.90;;;;;;5072490;28;20033;-74
2024/03/29 10:58:36;;;;;;;2.10;1.17;;;13.20;99.90;;;;;;5072095;28;20119;-74
2024/03/29 11:01:05;;;;;;;3.45;0.93;;;13.30;99.90;;;;;;5072236;28;20487;-74
2024/03/29 11:03:53;;;;;;;1.30;0.85;;;13.40;99.90;;;;;;5072456;28;20041;-74
2024/03/29 11:06:23;;;;;;;3.60;1.02;;;13.40;99.90;;;;;;5056061;28;20082;-74
2024/03/29 11:08:52;;;;;;;2.78;1.20;;;13.60;99.90;;;;;;5073984;28;20108;-74
2024/03/29 11:11:18;;;;;;;2.40;1.30;;;13.80;99.90;;;;;;5072330;28;20044;-74
2024/03/29 11:14:06;;;;;;;1.98;0.90;;;13.80;99.90;;;;;;5073282;28;20055;-74
2024/03/29 11:16:32;;;;;;;1.45;0.85;;;14.00;99.90;;;;;;5072523;28;20037;-76
2024/03/29 11:18:58;;;;;;;3.42;1.50;;;13.90;99.90;;;;;;5063987;28;20086;-77
2024/03/29 11:21:28;;;;;;;1.75;1.40;;;13.90;99.90;;;;;;5062353;28;20519;-76
2024/03/29 11:23:57;;;;;;;2.15;1.25;;;13.80;99.90;;;;;;5059366;28;20177;-77
2024/03/29 11:26:25;;;;;;;2.50;1.35;;;13.70;99.90;;;;;;5057547;28;20036;-78
2024/03/29 11:28:52;;;;;;;4.07;1.35;;;13.80;99.90;;;;;;5038427;28;20144;-77
2024/03/29 11:31:21;;;;;;;4.72;1.38;;;13.80;99.90;;;;;;5040744;28;20236;-78
2024/03/29 11:33:49;;;;;;;2.15;1.20;;;13.80;99.90;;;;;;5023065;28;20357;-78
2024/03/29 11:36:27;;;;;;;2.25;1.10;;;13.70;99.90;;;;;;5017615;28;20040;-78
2024/03/29 11:38:56;;;;;;;3.00;1.30;;;13.70;99.90;;;;;;5018033;28;20575;-76
2024/03/29 11:41:27;;;;;;;1.85;1.15;;;13.70;99.90;;;;;;5019106;28;20040;-78
2024/03/29 11:43:54;;;;;;;2.53;1.33;;;13.80;99.90;;;;;;5028817;22;20664;-75
2024/03/29 11:46:20;;;;;;;2.90;1.30;;;13.90;99.90;;;;;;5018389;28;20033;-77
2024/03/29 11:48:49;;;;;;;3.47;1.50;;;13.90;99.90;;;;;;5012467;28;20215;-76
2024/03/29 11:51:16;;;;;;;3.17;1.90;;;14.00;99.90;;;;;;5014388;28;20045;-75
2024/03/29 11:53:42;;;;;;;2.75;1.75;;;14.00;99.90;;;;;;5014874;28;20041;-75
2024/03/29 11:56:09;;;;;;;4.03;1.63;;;14.00;99.90;;;;;;5015510;28;20037;-75
2024/03/29 11:58:35;;;;;;;2.55;1.80;;;14.10;99.90;;;;;;5014906;28;20152;-75
2024/03/29 12:01:02;;;;;;;2.45;1.40;;;14.10;99.90;;;;;;5012100;28;20049;-76
2024/03/29 12:03:32;;;;;;;4.53;1.95;;;14.00;99.90;;;;;;5011124;28;20083;-75
2024/03/29 12:06:02;;;;;;;2.17;1.40;;;14.00;99.90;;;;;;5011895;28;20040;-75
2024/03/29 12:08:33;;;;;;;3.65;2.42;;;14.20;99.90;;;;;;5015150;28;20041;-76
2024/03/29 12:11:00;;;;;;;3.20;1.90;;;14.40;99.90;;;;;;5015944;28;20105;-75
2024/03/29 12:13:26;;;;;;;4.47;1.60;;;14.40;99.90;;;;;;5013827;28;20276;-75
2024/03/29 12:15:51;;;;;;;3.88;1.95;;;14.30;99.90;;;;;;5012653;28;20863;-75
2024/03/29 12:18:20;;;;;;;3.70;2.15;;;14.30;99.90;;;;;;5011392;28;20918;-75
2024/03/29 12:20:49;;;;;;;3.42;2.05;;;14.40;99.90;;;;;;5016257;28;20044;-75
2024/03/29 12:23:17;;;;;;;2.47;2.00;;;14.40;99.90;;;;;;4996375;28;20079;-75
2024/03/29 12:25:43;;;;;;;3.03;2.40;;;14.40;99.90;;;;;;5012415;28;20569;-77
2024/03/29 12:28:14;;;;;;;4.47;2.78;;;14.30;99.90;;;;;;4996326;28;20045;-75
2024/03/29 12:30:47;;;;;;;5.25;2.60;;;14.30;99.90;;;;;;5011162;28;20380;-75
2024/03/29 12:33:15;;;;;;;5.65;2.72;;;14.30;99.90;;;;;;4997957;28;20144;-75
2024/03/29 12:35:44;;;;;;;3.35;2.92;;;14.30;99.90;;;;;;5016956;28;20060;-76
2024/03/29 12:38:12;;;;;;;4.32;2.90;;;14.30;99.90;;;;;;5013464;28;20033;-75
2024/03/29 12:40:40;;;;;;;3.65;3.00;;;14.30;99.90;;;;;;5011998;28;20075;-75
2024/03/29 12:43:08;;;;;;;3.78;2.90;;;14.30;99.90;;;;;;4995644;28;20052;-76
2024/03/29 12:45:34;;;;;;;5.70;3.50;;;14.20;99.90;;;;;;5015778;28;20195;-76
2024/03/29 12:48:00;;;;;;;5.55;3.80;;;14.10;99.90;;;;;;5015053;28;20032;-76
2024/03/29 12:50:27;;;;;;;3.83;3.42;;;14.20;99.90;;;;;;5012442;28;20099;-75
2024/03/29 12:53:01;;;;;;;4.85;3.72;;;14.10;99.90;;;;;;5012848;28;20045;-74
2024/03/29 12:55:30;;;;;;;4.45;4.05;;;14.20;99.90;;;;;;5010339;28;20095;-74
2024/03/29 12:57:59;;;;;;;5.85;4.00;;;14.30;99.90;;;;;;5013164;28;20260;-75
2024/03/29 13:00:25;;;;;;;6.80;4.00;;;14.30;99.90;;;;;;5012879;28;20151;-75
2024/03/29 13:02:51;;;;;;;4.60;3.22;;;14.30;99.90;;;;;;5010151;28;20068;-72